Latest Coastal Weather Observations for Dum In Mirrie

IDD60701

Issued at 3:41 pm CST Sunday 29 March 2015 (issued every 10 minutes, with the page automatically refreshed every 10 minutes)

About coastal observations | Map of coastal stations | Coastal observations for NT | Marine services | Other Formats
Station Details ID: 014277 Name: DUM IN MIRRIE AIRSTRIP Lat: -12.63 Lon: 130.37 Height: 3.5 m
Data from the previous 72 hours. | See also: Recent months at Dum In Mirrie
Date/Time
CST
Temp

°C
Wind Pressure Rain
since 9am
mm
Weather Cloud Vis
km
Sea
Height
m
Swell
Dir
 
Speed
knots
Gust
knots
hPa Trend Height
m
Period
s
Dir
29/03:30pm 31.1 NNW 5 7 1009.8 - 0.0 - - - - - - -
29/03:00pm 31.3 N 7 11 1009.9 - 0.0 - - - - - - -
29/02:30pm 31.8 N 7 11 1010.1 - 0.0 - - - - - - -
29/02:00pm 31.9 NNE 7 10 1010.5 - 0.0 - - - - - - -
29/01:30pm 31.8 NNE 6 9 1011.0 - 0.0 - - - - - - -
29/01:00pm 32.4 NE 4 8 1011.4 - 0.0 - - - - - - -
29/12:30pm 31.8 NE 5 9 1011.8 - 0.0 - - - - - - -
29/12:00pm 31.4 NE 5 9 1012.3 - 0.0 - - - - - - -
29/11:30am 31.2 NE 4 8 1012.6 - 0.0 - - - - - - -
29/11:00am 30.8 E 5 9 1012.9 - 0.0 - - - - - - -
29/10:30am 30.6 ENE 5 8 1013.2 - 0.0 - - - - - - -
29/10:00am 29.9 ESE 3 5 1013.1 - 0.0 - - - - - - -
29/09:30am 29.1 ESE 3 4 1013.0 - 0.0 - - - - - - -
29/09:00am 28.5 E 3 5 1013.0 - 12.4 - - - - - - -
29/08:30am 27.2 ESE 4 5 1012.7 - 12.4 - - - - - - -
29/08:00am 26.3 ESE 2 3 1012.4 - 12.4 - - - - - - -
29/07:30am 25.6 SE 2 3 1012.0 - 12.4 - - - - - - -
29/07:00am 25.2 E 3 4 1011.6 - 12.4 - - - - - - -
29/06:30am 25.0 ESE 3 4 1011.3 - 12.4 - - - - - - -
29/06:00am 24.9 ESE 3 4 1011.1 - 12.4 - - - - - - -
29/05:30am 24.7 ESE 1 2 1010.9 - 12.4 - - - - - - -
29/05:00am 24.5 CALM 0 0 1010.5 - 12.4 - - - - - - -
29/04:30am 24.4 CALM 0 0 1010.6 - 12.4 - - - - - - -
29/04:00am 24.0 ENE 2 4 1010.8 - 12.2 - - - - - - -
29/03:30am 24.1 CALM 0 0 1011.0 - 12.0 - - - - - - -
29/03:00am 24.1 NW 2 3 1011.0 - 12.0 Rain - - - - - -
29/02:30am 24.1 E 7 16 1011.5 - 7.8 - - - - - - -
29/02:00am 25.0 NNE 6 17 1011.8 - 0.0 - - - - - - -
29/01:30am 28.1 WNW 1 2 1011.9 - 0.0 - - - - - - -
29/01:00am 28.0 W 2 5 1011.6 - 0.0 - - - - - - -
29/12:30am 28.0 NW 2 3 1012.0 - 0.0 - - - - - - -
29/12:00am 28.3 W 2 3 1012.5 - 0.0 - - - - - - -
 
Date/Time
CST
Temp

°C
Wind Pressure Rain
since 9am
mm
Weather Cloud Vis
km
Sea
Height
m
Swell
Dir
 
Speed
knots
Gust
knots
hPa Trend Height
m
Period
s
Dir
28/11:30pm 28.3 WNW 3 5 1012.5 - 0.0 - - - - - - -
28/11:00pm 28.2 WNW 2 2 1012.7 - 0.0 - - - - - - -
28/10:30pm 28.6 WNW 3 6 1012.5 - 0.0 - - - - - - -
28/10:00pm 28.7 W 2 4 1012.4 - 0.0 - - - - - - -
28/09:30pm 28.8 W 3 6 1012.2 - 0.0 - - - - - - -
28/09:00pm 28.9 WNW 3 5 1012.1 - 0.0 - - - - - - -
28/08:30pm 28.9 WNW 3 6 1012.0 - 0.0 - - - - - - -
28/08:00pm 28.9 NW 2 4 1011.6 - 0.0 - - - - - - -
28/07:30pm 28.9 NNW 3 6 1011.4 - 0.0 - - - - - - -
28/07:00pm 28.9 NNW 3 5 1011.0 - 0.0 - - - - - - -
28/06:30pm 29.7 NW 2 5 1010.7 - 0.0 - - - - - - -
28/06:00pm 30.2 NW 2 5 1010.2 - 0.0 - - - - - - -
28/05:30pm 30.7 WNW 3 6 1010.2 - 0.0 - - - - - - -
28/05:00pm 31.0 WNW 4 7 1010.1 - 0.0 - - - - - - -
28/04:30pm 30.6 NNW 5 7 1009.7 - 0.0 - - - - - - -
28/04:00pm 31.1 NNW 6 10 1009.6 - 0.0 - - - - - - -
28/03:30pm 31.0 NNW 6 10 1009.8 - 0.0 - - - - - - -
28/03:00pm 31.2 NNW 6 9 1010.2 - 0.0 - - - - - - -
28/02:30pm 31.4 NNW 5 9 1010.5 - 0.0 - - - - - - -
28/02:00pm 31.2 N 6 9 1011.0 - 0.0 - - - - - - -
28/01:30pm 31.6 N 5 7 1011.4 - 0.0 - - - - - - -
28/01:00pm 31.1 NNW 6 9 1011.7 - 0.0 - - - - - - -
28/12:30pm 30.4 NNW 6 9 1012.3 - 0.0 - - - - - - -
28/12:00pm 30.9 NNE 4 7 1012.5 - 0.0 - - - - - - -
28/11:30am 30.4 N 4 8 1012.9 - 0.0 - - - - - - -
28/11:00am 29.9 NE 3 5 1013.3 - 0.0 - - - - - - -
28/10:30am 29.8 NNE 5 7 1013.3 - 0.0 - - - - - - -
28/10:00am 29.3 NE 3 4 1013.1 - 0.0 - - - - - - -
28/09:30am 29.0 ENE 3 5 1012.9 - 0.0 - - - - - - -
28/09:00am 28.8 ESE 3 6 1012.8 - 0.4 - - - - - - -
28/08:30am 27.8 ESE 4 6 1012.5 - 0.4 - - - - - - -
28/08:00am 26.5 ESE 3 4 1012.4 - 0.4 - - - - - - -
28/07:30am 25.3 CALM 0 0 1011.8 - 0.4 - - - - - - -
28/07:00am 24.7 NE 2 3 1011.5 - 0.4 - - - - - - -
28/06:30am 24.4 NE 2 3 1011.2 - 0.4 - - - - - - -
28/06:00am 24.5 ENE 1 2 1011.1 - 0.4 - - - - - - -
28/05:30am 24.8 ENE 1 2 1010.9 - 0.4 - - - - - - -
28/05:00am 24.6 E 3 3 1010.9 - 0.4 - - - - - - -
28/04:30am 24.9 E 2 3 1010.8 - 0.4 - - - - - - -
28/04:00am 24.8 ENE 2 3 1010.9 - 0.4 - - - - - - -
28/03:30am 24.9 ENE 3 3 1011.0 - 0.4 - - - - - - -
28/03:00am 25.3 E 3 4 1011.2 - 0.4 - - - - - - -
28/02:30am 25.4 ESE 3 4 1011.5 - 0.4 - - - - - - -
28/02:00am 25.2 E 4 5 1011.6 - 0.4 - - - - - - -
28/01:30am 25.2 ESE 4 5 1012.0 - 0.4 - - - - - - -
28/01:00am 25.3 SE 3 4 1012.4 - 0.4 - - - - - - -
28/12:30am 25.6 ESE 4 6 1012.7 - 0.4 - - - - - - -
28/12:00am 25.5 ESE 4 6 1012.9 - 0.4 - - - - - - -
 
Date/Time
CST
Temp

°C
Wind Pressure Rain
since 9am
mm
Weather Cloud Vis
km
Sea
Height
m
Swell
Dir
 
Speed
knots
Gust
knots
hPa Trend Height
m
Period
s
Dir
27/11:30pm 25.6 ESE 4 6 1013.1 - 0.4 - - - - - - -
27/11:00pm 25.8 SE 3 6 1013.3 - 0.4 - - - - - - -
27/10:30pm 26.1 ESE 4 7 1013.6 - 0.4 - - - - - - -
27/10:00pm 26.2 ESE 5 8 1013.7 - 0.4 - - - - - - -
27/09:30pm 26.1 ESE 3 5 1013.5 - 0.4 - - - - - - -
27/09:00pm 26.4 SE 3 6 1013.5 - 0.4 - - - - - - -
27/08:30pm 26.7 SE 3 6 1013.3 - 0.4 - - - - - - -
27/08:00pm 27.0 SE 3 5 1012.8 - 0.4 - - - - - - -
27/07:30pm 27.5 E 3 6 1012.3 - 0.4 - - - - - - -
27/07:00pm 27.6 CALM 0 0 1011.5 - 0.4 - - - - - - -
27/06:30pm 28.4 ENE 2 3 1011.4 - 0.4 - - - - - - -
27/06:00pm 28.8 ENE 3 5 1011.2 - 0.4 - - - - - - -
27/05:30pm 29.4 NNE 3 5 1010.7 - 0.4 - - - - - - -
27/05:00pm 29.5 NNE 6 10 1010.2 - 0.4 - - - - - - -
27/04:30pm 29.9 NNE 5 8 1009.7 - 0.4 - - - - - - -
27/04:00pm 29.7 NE 4 7 1010.0 - 0.4 - - - - - - -
27/03:30pm 30.3 NE 6 9 1010.6 - 0.4 - - - - - - -
27/03:00pm 29.1 ENE 8 11 1011.1 - 0.4 - - - - - - -
27/02:30pm 28.9 ENE 7 10 1011.8 - 0.4 - - - - - - -
27/02:00pm 28.6 ENE 6 11 1012.1 - 0.4 - - - - - - -
27/01:30pm 28.2 E 6 10 1012.6 - 0.4 - - - - - - -
27/01:00pm 28.4 ENE 6 9 1013.2 - 0.4 - - - - - - -
27/12:30pm 27.7 E 7 11 1013.5 - 0.4 - - - - - - -
27/12:00pm 27.0 E 6 9 1013.5 - 0.4 - - - - - - -
27/11:30am 27.4 E 7 11 1013.4 - 0.4 - - - - - - -
27/11:00am 26.7 E 8 11 1013.6 - 0.4 - - - - - - -
27/10:30am 25.7 E 4 8 1014.0 - 0.4 - - - - - - -
27/10:00am 25.6 NE 3 7 1014.3 - 0.4 - - - - - - -
27/09:30am 24.9 ENE 3 6 1014.7 - 0.4 - - - - - - -
27/09:00am 24.2 ENE 4 5 1014.7 - 73.6 Rain - - - - - -
27/08:30am 24.1 ENE 4 6 1015.1 - 72.2 - - - - - - -
27/08:00am 23.8 ENE 2 3 1015.1 - 69.2 - - - - - - -
27/07:30am 23.8 NNE 3 6 1015.0 - 66.0 - - - - - - -
27/07:00am 23.8 NNE 5 10 1014.3 - 63.6 - - - - - - -
27/06:30am 24.1 NE 2 3 1013.8 - 58.8 - - - - - - -
27/06:00am 23.9 ENE 3 4 1013.3 - 57.4 Rain - - - - - -
27/05:30am 24.0 NE 7 12 1013.1 - 55.2 - - - - - - -
27/05:00am 23.8 NNE 8 13 1012.7 - 48.0 - - - - - - -
27/04:30am 24.8 NE 6 9 1012.4 - 38.0 - - - - - - -
27/04:00am 24.4 E 7 11 1012.2 - 35.8 - - - - - - -
27/03:30am 23.9 E 10 17 1012.8 - 33.6 - - - - - - -
27/03:00am 24.9 ENE 2 7 1012.0 - 21.6 Rain - - - - - -
27/02:30am 25.6 N 2 10 1011.6 - 15.6 - - - - - - -
27/02:00am 25.5 N 9 14 1011.7 - 9.8 - - - - - - -
27/01:30am 26.7 NNE 10 23 1012.2 - 8.0 - - - - - - -
27/01:00am 27.9 ENE 7 12 1012.2 - 8.0 - - - - - - -
27/12:30am 27.9 NE 8 12 1012.4 - 8.0 - - - - - - -
27/12:00am 27.7 NE 7 11 1012.8 - 8.0 Recent precip. - - - - - -
 
Date/Time
CST
Temp

°C
Wind Pressure Rain
since 9am
mm
Weather Cloud Vis
km
Sea
Height
m
Swell
Dir
 
Speed
knots
Gust
knots
hPa Trend Height
m
Period
s
Dir
26/11:30pm 27.7 NE 6 11 1012.4 - 7.8 - - - - - - -
26/11:00pm 27.6 NE 5 9 1012.7 - 7.8 - - - - - - -
26/10:30pm 27.5 NE 6 9 1012.8 - 7.8 - - - - - - -
26/10:00pm 27.6 NE 6 11 1012.5 - 7.8 - - - - - - -
26/09:30pm 27.2 NE 6 10 1012.3 - 7.8 - - - - - - -
26/09:00pm 26.8 ENE 4 7 1012.3 - 7.8 - - - - - - -
26/08:30pm 26.8 ENE 5 7 1011.9 - 7.8 - - - - - - -
26/08:00pm 26.4 ENE 5 9 1011.7 - 7.8 - - - - - - -
26/07:30pm 26.1 E 5 8 1011.2 - 7.8 - - - - - - -
26/07:00pm 26.1 ENE 7 14 1011.1 - 7.8 - - - - - - -
26/06:30pm 27.4 ENE 7 11 1010.8 - 6.4 - - - - - - -
26/06:00pm 27.1 NE 5 8 1010.0 - 6.0 - - - - - - -
26/05:30pm 27.2 NE 6 9 1009.9 - 6.0 - - - - - - -
26/05:00pm 27.4 NNE 7 12 1009.7 - 6.0 - - - - - - -
26/04:30pm 27.7 NE 8 15 1009.6 - 6.0 - - - - - - -
26/04:00pm 29.1 NNE 6 10 1009.5 - 6.0 - - - - - - -

Other Formats:

Comma delimited format used in spreadsheet applications
http://www.bom.gov.au/fwo/IDD60701/IDD60701.94116.axf

JavaScript Object Notation format (JSON) in row-major order
http://www.bom.gov.au/fwo/IDD60701/IDD60701.94116.json